Time;durP1;ratioP1;P1;durP2;ratioP2;P2;SDS_P1;SDS_P2;PMS_P1;PMS_P2;Temp;Humidity;BMP_temperature;BMP_pressure;BME280_temperature;BME280_humidity;BME280_pressure;Samples;Min_cycle;Max_cycle;Signal;HPM_P1;HPM_P2
2023/03/25 00:00:06;;;;;;;;;;;11.60;83.30;;;10.95;65.99;99321.53;5052189;28;19920;-88
2023/03/25 00:02:33;;;;;;;;;;;11.60;83.60;;;10.96;65.25;99317.00;5050901;28;19925;-88
2023/03/25 00:05:02;;;;;;;;;;;11.60;82.90;;;10.94;65.08;99319.91;5051276;28;19990;-88
2023/03/25 00:07:30;;;;;;;;;;;11.60;82.90;;;10.87;65.23;99321.09;5049295;28;19966;-91
2023/03/25 00:09:57;;;;;;;;;;;11.50;83.10;;;10.79;65.11;99312.47;5042680;28;19925;-87
2023/03/25 00:12:26;;;;;;;;;;;11.50;83.00;;;10.78;65.33;99318.03;5049724;28;20400;-89
2023/03/25 00:14:54;;;;;;;;;;;11.40;83.20;;;10.79;65.45;99317.00;5031480;28;20612;-88
2023/03/25 00:17:21;;;;;;;;;;;11.50;83.30;;;10.75;65.40;99318.53;5050130;28;19921;-87
2023/03/25 00:19:50;;;;;;;;;;;11.40;83.30;;;10.73;65.32;99313.41;5032287;28;19947;-88
2023/03/25 00:22:17;;;;;;;;;;;11.40;83.30;;;10.67;65.78;99317.03;5036022;28;19925;-92
2023/03/25 00:24:44;;;;;;;;;;;11.40;83.70;;;10.70;65.86;99313.91;5046686;28;19927;-88
2023/03/25 00:27:13;;;;;;;;;;;11.30;83.60;;;10.72;65.89;99305.66;5050088;28;19924;-86
2023/03/25 00:29:42;;;;;;;;;;;11.40;83.70;;;10.73;65.56;99299.28;5045459;28;19943;-90
2023/03/25 00:32:10;;;;;;;;;;;11.40;83.40;;;10.75;65.81;99305.19;5038346;28;19970;-86
2023/03/25 00:34:40;;;;;;;;;;;11.70;83.70;;;10.70;65.70;99303.25;5046073;28;19929;-87
2023/03/25 00:37:08;;;;;;;;;;;11.30;83.60;;;10.76;65.94;99309.47;5050046;28;20281;-88
2023/03/25 00:39:36;;;;;;;;;;;11.40;84.00;;;10.75;65.35;99302.53;5024437;28;19924;-88
2023/03/25 00:42:03;;;;;;;;;;;11.50;83.50;;;10.72;65.54;99300.31;5041777;28;20010;-88
2023/03/25 00:44:30;;;;;;;;;;;11.30;83.70;;;10.75;65.69;99306.00;5051317;28;19927;-89
2023/03/25 00:46:59;;;;;;;;;;;11.40;83.60;;;10.77;65.82;99300.41;5037046;28;19929;-88
2023/03/25 00:49:27;;;;;;;;;;;11.40;83.70;;;10.77;65.69;99293.22;5031255;28;19921;-88
2023/03/25 00:51:55;;;;;;;;;;;11.40;83.70;;;10.79;65.69;99290.31;5029474;28;19925;-88
2023/03/25 00:54:23;;;;;;;;;;;11.40;83.70;;;10.80;65.46;99292.75;5041517;28;19928;-88
2023/03/25 00:56:52;;;;;;;;;;;11.50;83.40;;;10.81;65.58;99290.88;5022216;28;20337;-88
2023/03/25 00:59:19;;;;;;;;;;;11.40;83.70;;;10.86;65.76;99298.97;5031163;28;19931;-88
2023/03/25 01:01:46;;;;;;;;;;;11.50;83.70;;;10.86;65.42;99296.28;5039375;28;19924;-87
2023/03/25 01:04:15;;;;;;;;;;;11.50;83.30;;;10.87;65.42;99289.09;5032582;28;20440;-87
2023/03/25 01:06:43;;;;;;;;;;;11.50;83.30;;;10.87;65.47;99289.91;5048144;28;19924;-91
2023/03/25 01:09:13;;;;;;;;;;;11.50;83.30;;;10.87;65.11;99283.75;5044002;28;19957;-87
2023/03/25 01:11:42;;;;;;;;;;;11.50;83.00;;;10.85;65.10;99293.88;5049093;28;20277;-90
2023/03/25 01:14:13;;;;;;;;;;;11.50;83.10;;;10.84;65.35;99287.75;5050373;28;19920;-88
2023/03/25 01:16:40;;;;;;;;;;;11.50;83.30;;;10.86;65.61;99292.81;5044594;28;19921;-87
2023/03/25 01:19:08;;;;;;;;;;;11.50;83.40;;;10.81;65.32;99290.88;5050306;28;19925;-90
2023/03/25 01:21:37;;;;;;;;;;;11.50;83.40;;;10.79;65.80;99291.13;5049388;28;19921;-88
2023/03/25 01:24:05;;;;;;;;;;;11.50;83.50;;;10.71;65.59;99290.72;5048773;28;19942;-88
2023/03/25 01:26:32;;;;;;;;;;;11.40;83.30;;;10.73;65.79;99292.06;5029458;28;19935;-88
2023/03/25 01:28:59;;;;;;;;;;;11.40;83.50;;;10.70;65.04;99284.56;5032268;28;19939;-87
2023/03/25 01:31:28;;;;;;;;;;;11.40;83.00;;;10.70;65.17;99281.09;5046809;28;20003;-86
2023/03/25 01:33:56;;;;;;;;;;;11.40;82.90;;;10.67;65.19;99281.56;5049960;28;19975;-91
2023/03/25 01:36:23;;;;;;;;;;;11.30;82.90;;;10.66;65.17;99293.28;5028819;28;19929;-89
2023/03/25 01:38:52;;;;;;;;;;;11.30;83.10;;;10.63;65.13;99281.22;5031585;28;19921;-87
2023/03/25 01:41:19;;;;;;;;;;;11.30;82.90;;;10.62;64.90;99274.28;5029741;28;19924;-89
2023/03/25 01:44:01;;;;;;;;;;;11.30;82.80;;;10.61;65.20;99274.53;5031484;28;19920;-88
2023/03/25 01:46:28;;;;;;;;;;;11.30;83.10;;;10.65;64.96;99279.16;5027490;28;19925;-88
2023/03/25 01:48:56;;;;;;;;;;;11.30;82.80;;;10.64;65.03;99271.38;5012339;28;19921;-89
2023/03/25 01:51:26;;;;;;;;;;;11.30;82.80;;;10.58;63.67;99270.50;5020610;28;19928;-87
2023/03/25 01:53:55;;;;;;;;;;;11.20;81.40;;;10.50;63.99;99265.56;5049357;28;19925;-91
2023/03/25 01:56:25;;;;;;;;;;;11.10;81.80;;;10.52;64.18;99271.47;5044771;28;20373;-91
2023/03/25 01:58:52;;;;;;;;;;;11.20;82.10;;;10.55;64.72;99263.78;5012166;28;19925;-88
2023/03/25 02:01:21;;;;;;;;;;;11.20;82.50;;;10.59;64.42;99269.47;5044935;28;19925;-87
2023/03/25 02:03:50;;;;;;;;;;;11.30;82.10;;;10.62;64.60;99268.97;5031243;28;19931;-86
2023/03/25 02:06:23;;;;;;;;;;;11.30;82.50;;;10.62;63.65;99263.63;5029867;28;19924;-88
2023/03/25 02:08:52;;;;;;;;;;;11.30;81.50;;;10.61;63.75;99271.88;5044037;28;20288;-87
2023/03/25 02:11:20;;;;;;;;;;;11.20;81.60;;;10.63;63.88;99272.44;5024511;28;19925;-90
2023/03/25 02:13:47;;;;;;;;;;;11.30;81.80;;;10.62;63.45;99271.63;5031092;28;20389;-88
2023/03/25 02:16:27;;;;;;;;;;;11.30;81.60;;;10.63;63.85;99267.91;5043714;28;20324;-89
2023/03/25 02:19:05;;;;;;;;;;;11.30;81.80;;;10.65;63.34;99265.81;5049510;28;19924;-88
2023/03/25 02:22:06;;;;;;;;;;;11.30;81.10;;;10.66;63.20;99278.09;5048436;28;19927;-87
2023/03/25 02:24:52;;;;;;;;;;;11.30;81.20;;;10.67;62.88;99266.38;5047652;28;20460;-86
2023/03/25 02:27:32;;;;;;;;;;;11.30;80.80;;;10.67;63.22;99277.03;5045516;28;19925;-88
2023/03/25 02:30:45;;;;;;;;;;;11.30;81.00;;;10.62;62.69;99273.50;5045487;28;19956;-88
2023/03/25 02:33:45;;;;;;;;;;;11.30;80.80;;;10.64;62.89;99280.22;5045984;28;20011;-89
2023/03/25 02:36:37;;;;;;;;;;;11.30;80.80;;;10.65;62.47;99275.69;5042680;28;20011;-87
2023/03/25 02:39:10;;;;;;;;;;;11.30;80.60;;;10.62;62.65;99276.97;5030908;28;19929;-87
2023/03/25 02:41:42;;;;;;;;;;;11.30;80.60;;;10.63;62.75;99280.44;5029564;28;20406;-89
2023/03/25 02:44:13;;;;;;;;;;;11.30;80.70;;;10.63;62.84;99283.91;5034935;28;19925;-87
2023/03/25 02:46:44;;;;;;;;;;;11.30;80.80;;;10.58;62.61;99276.63;5043549;28;19925;-91
2023/03/25 02:49:13;;;;;;;;;;;11.20;80.30;;;10.61;63.05;99277.22;5016145;28;19955;-86
2023/03/25 02:51:45;;;;;;;;;;;11.30;81.20;;;10.54;62.94;99277.34;5047717;28;19929;-89
2023/03/25 02:54:15;;;;;;;;;;;11.20;80.60;;;10.57;62.87;99271.53;5028885;28;20016;-87
2023/03/25 02:56:44;;;;;;;;;;;11.20;80.80;;;10.58;63.15;99265.16;5028551;28;20389;-92
2023/03/25 02:59:13;;;;;;;;;;;11.20;81.00;;;10.58;62.84;99273.16;5048914;28;19920;-89
2023/03/25 03:01:40;;;;;;;;;;;11.20;80.60;;;10.57;62.74;99266.22;5028476;28;19931;-87
2023/03/25 03:04:07;;;;;;;;;;;11.20;80.70;;;10.53;62.80;99276.53;5042799;28;19925;-90
2023/03/25 03:06:38;;;;;;;;;;;11.20;80.80;;;10.53;63.11;99270.41;5047611;28;20300;-87
2023/03/25 03:09:21;;;;;;;;;;;11.20;80.90;;;10.51;62.63;99267.19;5049074;28;19925;-87
2023/03/25 03:11:56;;;;;;;;;;;11.10;80.70;;;10.42;62.69;99263.28;5039700;28;20415;-88
2023/03/25 03:14:34;;;;;;;;;;;11.10;80.80;;;10.45;62.94;99276.94;5045827;28;19924;-87
2023/03/25 03:17:07;;;;;;;;;;;11.10;80.90;;;10.39;62.92;99272.56;5029004;28;20316;-91
2023/03/25 03:19:39;;;;;;;;;;;11.10;80.90;;;10.41;63.28;99259.81;5050549;28;20019;-90
2023/03/25 03:22:15;;;;;;;;;;;11.10;81.00;;;10.43;62.73;99256.91;5052746;28;19932;-87
2023/03/25 03:24:48;;;;;;;;;;;11.10;80.70;;;10.46;63.02;99270.56;5034847;28;20007;-88
2023/03/25 03:27:24;;;;;;;;;;;11.10;81.00;;;10.43;62.94;99263.03;5031077;28;19928;-88
2023/03/25 03:29:55;;;;;;;;;;;11.20;80.70;;;10.43;62.91;99264.91;5038159;28;19924;-88
2023/03/25 03:32:28;;;;;;;;;;;11.10;80.80;;;10.45;63.24;99262.81;5052368;28;19959;-87
2023/03/25 03:34:57;;;;;;;;;;;11.10;81.10;;;10.46;63.24;99264.44;5032942;28;19925;-88
2023/03/25 03:37:28;;;;;;;;;;;11.10;81.10;;;10.46;63.49;99256.44;5034997;28;20355;-90
2023/03/25 03:39:57;;;;;;;;;;;11.10;81.60;;;10.48;64.01;99256.97;5040543;28;19924;-89
2023/03/25 03:42:28;;;;;;;;;;;11.10;81.80;;;10.47;63.64;99263.38;5034181;28;20327;-89
2023/03/25 03:44:59;;;;;;;;;;;11.10;81.60;;;10.43;63.54;99252.38;5044910;28;20269;-88
2023/03/25 03:47:29;;;;;;;;;;;11.10;81.80;;;10.41;63.78;99267.00;5051166;28;19924;-90
2023/03/25 03:50:00;;;;;;;;;;;11.00;81.60;;;10.39;63.52;99261.88;5041393;28;19924;-90
2023/03/25 03:52:32;;;;;;;;;;;11.00;81.50;;;10.41;63.86;99256.34;5034494;28;19921;-87
2023/03/25 03:55:03;;;;;;;;;;;11.00;81.60;;;10.43;63.97;99264.91;5045741;28;19939;-90
2023/03/25 03:57:33;;;;;;;;;;;11.10;82.00;;;10.44;64.17;99266.50;5050926;28;19924;-92
2023/03/25 04:00:04;;;;;;;;;;;11.10;82.10;;;10.46;63.90;99259.09;5029943;28;19924;-88
2023/03/25 04:02:41;;;;;;;;;;;11.10;81.80;;;10.45;63.90;99262.81;5052088;28;20012;-87
2023/03/25 04:05:11;;;;;;;;;;;11.10;81.80;;;10.40;63.40;99266.19;5045980;28;20396;-88
2023/03/25 04:07:43;;;;;;;;;;;11.10;81.30;;;10.34;63.56;99259.13;5060365;22;19963;-79
2023/03/25 04:10:17;;;;;;;;;;;11.00;81.30;;;10.27;63.63;99272.63;5037713;28;20377;-80
2023/03/25 04:12:47;;;;;;;;;;;10.90;81.60;;;10.29;63.70;99265.19;5040375;28;19925;-78
2023/03/25 04:15:15;;;;;;;;;;;11.00;81.60;;;10.30;64.15;99256.16;5049005;28;19924;-80
2023/03/25 04:17:42;;;;;;;;;;;11.00;81.80;;;10.28;63.99;99265.44;5051309;28;20645;-78
2023/03/25 04:20:13;;;;;;;;;;;10.90;81.80;;;10.28;63.67;99268.09;5033284;28;19990;-82
2023/03/25 04:22:44;;;;;;;;;;;10.90;81.60;;;10.27;64.18;99261.16;5043966;28;19966;-78
2023/03/25 04:25:13;;;;;;;;;;;10.90;82.10;;;10.30;63.72;99261.50;5063610;28;19924;-79
2023/03/25 04:27:44;;;;;;;;;;;11.00;81.60;;;10.29;63.81;99267.84;5052792;28;19940;-79
2023/03/25 04:30:12;;;;;;;;;;;11.00;81.60;;;10.31;63.87;99262.31;5051701;28;19932;-82
2023/03/25 04:32:38;;;;;;;;;;;11.00;81.80;;;10.29;64.58;99262.50;5034410;28;20336;-80
2023/03/25 04:35:08;;;;;;;;;;;11.00;82.60;;;10.27;64.50;99266.47;5041392;28;19931;-78
2023/03/25 04:37:35;;;;;;;;;;;10.90;82.50;;;10.25;64.95;99264.06;5050176;28;19924;-78
2023/03/25 04:40:05;;;;;;;;;;;10.90;82.80;;;10.27;65.09;99261.97;5052215;28;20304;-79
2023/03/25 04:42:36;;;;;;;;;;;11.00;82.90;;;10.29;64.85;99257.19;5045498;28;20354;-80
2023/03/25 04:45:04;;;;;;;;;;;10.90;82.70;;;10.22;64.63;99253.03;5051731;28;19924;-80
2023/03/25 04:47:31;;;;;;;;;;;10.90;82.50;;;10.21;64.90;99254.91;5046135;28;19956;-81
2023/03/25 04:49:58;;;;;;;;;;;10.80;82.50;;;10.19;64.99;99258.84;5049935;28;19921;-79
2023/03/25 04:52:25;;;;;;;;;;;10.90;82.90;;;10.21;65.02;99256.75;5051540;28;19939;-79
2023/03/25 04:54:53;;;;;;;;;;;10.90;82.90;;;10.21;64.91;99262.88;5049796;28;19927;-79
2023/03/25 04:57:20;;;;;;;;;;;10.90;82.70;;;10.23;65.07;99255.44;5060214;28;19928;-79
2023/03/25 04:59:48;;;;;;;;;;;10.90;82.80;;;10.23;64.54;99250.13;5047188;28;19924;-81
2023/03/25 05:02:17;;;;;;;;;;;10.90;82.40;;;10.18;64.61;99250.03;5051266;28;20011;-79
2023/03/25 05:04:46;;;;;;;;;;;10.90;82.50;;;10.20;65.15;99263.94;5026348;28;20652;-79
2023/03/25 05:07:15;;;;;;;;;;;10.90;83.00;;;10.20;65.13;99255.13;5049556;28;19920;-80
2023/03/25 05:09:42;;;;;;;;;;;10.90;83.00;;;10.18;65.36;99257.22;5044241;28;20289;-78
2023/03/25 05:12:10;;;;;;;;;;;10.90;83.20;;;10.19;65.25;99256.16;5050040;28;20046;-79
2023/03/25 05:14:37;;;;;;;;;;;10.90;83.10;;;10.20;65.06;99250.63;5043286;28;19925;-79
2023/03/25 05:17:05;;;;;;;;;;;10.90;83.00;;;10.22;65.18;99253.03;5049539;28;19928;-79
2023/03/25 05:19:33;;;;;;;;;;;10.90;83.30;;;10.24;65.11;99256.28;5052977;28;20293;-81
2023/03/25 05:22:03;;;;;;;;;;;10.90;82.90;;;10.22;65.03;99253.03;5055004;28;19932;-79
2023/03/25 05:24:30;;;;;;;;;;;10.90;82.90;;;10.20;65.35;99250.63;5056041;28;19939;-81
2023/03/25 05:27:01;;;;;;;;;;;10.90;83.30;;;10.22;65.64;99253.03;5064487;28;19924;-79
2023/03/25 05:29:32;;;;;;;;;;;10.90;83.50;;;10.22;65.83;99264.50;5057321;28;19925;-80
2023/03/25 05:31:59;;;;;;;;;;;10.90;83.70;;;10.20;65.87;99261.28;5057456;28;19924;-79
2023/03/25 05:34:29;;;;;;;;;;;10.90;83.70;;;10.17;65.94;99259.09;5049877;28;20012;-78
2023/03/25 05:36:56;;;;;;;;;;;10.80;83.80;;;10.17;65.89;99269.75;5048866;28;19970;-80
2023/03/25 05:39:24;;;;;;;;;;;11.00;83.70;;;10.15;65.36;99277.16;5037966;28;19920;-79
2023/03/25 05:41:54;;;;;;;;;;;10.70;83.30;;;10.15;65.34;99279.84;5055554;28;19971;-79
2023/03/25 05:44:21;;;;;;;;;;;10.80;83.40;;;10.14;65.80;99275.53;5056413;28;19925;-79
2023/03/25 05:46:48;;;;;;;;;;;10.80;83.70;;;10.18;65.70;99275.88;5060957;28;19927;-79
2023/03/25 05:49:15;;;;;;;;;;;10.80;83.70;;;10.18;65.37;99279.34;5047783;28;19931;-78
2023/03/25 05:51:44;;;;;;;;;;;10.80;83.10;;;10.19;65.32;99275.63;5048783;28;19946;-79
2023/03/25 05:54:11;;;;;;;;;;;10.80;83.20;;;10.17;65.34;99283.06;5036092;28;19924;-79
2023/03/25 05:56:38;;;;;;;;;;;10.80;83.30;;;10.16;65.74;99270.78;5049252;28;20057;-80
2023/03/25 05:59:05;;;;;;;;;;;10.80;83.70;;;10.16;66.50;99277.97;5028833;28;19928;-79
2023/03/25 06:01:32;;;;;;;;;;;10.80;84.30;;;10.13;66.63;99271.25;5043362;28;19932;-81
2023/03/25 06:04:00;;;;;;;;;;;10.80;84.40;;;10.15;66.21;99274.50;5036203;28;19928;-78
2023/03/25 06:06:28;;;;;;;;;;;10.80;84.10;;;10.12;66.19;99276.81;5065267;28;20297;-77
2023/03/25 06:08:56;;;;;;;;;;;10.70;84.10;;;10.11;66.25;99268.03;5025219;28;20003;-78
2023/03/25 06:11:23;;;;;;;;;;;10.70;84.00;;;10.08;66.37;99271.16;5049573;28;20396;-79
2023/03/25 06:13:50;;;;;;;;;;;10.70;84.00;;;10.11;66.07;99273.38;5047449;28;20039;-80
2023/03/25 06:16:19;;;;;;;;;;;10.80;83.80;;;10.11;65.38;99272.56;5057761;28;19924;-81
2023/03/25 06:18:49;;;;;;;;;;;10.80;83.40;;;10.12;65.70;99271.50;5058409;28;19970;-78
2023/03/25 06:21:18;;;;;;;;;;;10.80;83.60;;;10.10;65.80;99276.25;5048095;28;20027;-79
2023/03/25 06:23:46;;;;;;;;;;;10.70;83.80;;;10.08;65.96;99273.81;5054190;28;20007;-81
2023/03/25 06:26:15;;;;;;;;;;;10.80;83.90;;;10.07;66.51;99269.53;5060548;28;19963;-79
2023/03/25 06:28:43;;;;;;;;;;;10.80;84.40;;;10.05;67.38;99276.94;5045556;28;20399;-77
2023/03/25 06:31:15;;;;;;;;;;;10.70;85.30;;;10.06;67.56;99275.94;5031655;28;20301;-79
2023/03/25 06:33:42;;;;;;;;;;;10.70;85.50;;;10.04;67.95;99286.00;5052167;28;20341;-77
2023/03/25 06:36:11;;;;;;;;;;;10.70;85.70;;;10.09;68.57;99291.41;5051771;28;19927;-78
2023/03/25 06:38:42;;;;;;;;;;;10.70;86.30;;;10.04;68.29;99284.13;5055477;28;19925;-79
2023/03/25 06:41:16;;;;;;;;;;;10.70;86.20;;;10.02;69.33;99285.44;5031148;28;19925;-79
2023/03/25 06:44:09;;;;;;;;;;;10.70;86.80;;;10.03;69.79;99279.84;5039099;28;19936;-79
2023/03/25 06:46:45;;;;;;;;;;;10.70;87.30;;;10.01;69.38;99289.16;5050080;28;20372;-79
2023/03/25 06:49:17;;;;;;;;;;;10.70;86.90;;;10.04;69.57;99293.97;5026731;28;20539;-80
2023/03/25 06:51:44;;;;;;;;;;;10.70;87.00;;;10.05;69.22;99295.59;5053607;28;19920;-81
2023/03/25 06:54:11;;;;;;;;;;;10.70;86.80;;;10.05;69.21;99303.59;5041922;28;19931;-77
2023/03/25 06:56:39;;;;;;;;;;;10.70;86.70;;;10.05;69.30;99292.94;5048513;28;19925;-78
2023/03/25 06:59:07;;;;;;;;;;;10.70;86.90;;;10.09;69.24;99295.94;5034225;28;20047;-78
2023/03/25 07:01:34;;;;;;;;;;;10.70;86.80;;;10.11;69.14;99293.88;5064789;28;20030;-79
2023/03/25 07:04:01;;;;;;;;;;;11.00;86.70;;;10.10;69.24;99300.22;5047368;28;19928;-78
2023/03/25 07:06:28;;;;;;;;;;;10.80;86.80;;;10.12;69.60;99306.13;5052337;28;19924;-77
2023/03/25 07:08:55;;;;;;;;;;;10.80;87.00;;;10.16;69.68;99299.28;5034160;28;20077;-77
2023/03/25 07:11:25;;;;;;;;;;;10.80;87.10;;;10.17;69.52;99317.69;5046062;28;19925;-77
2023/03/25 07:13:54;;;;;;;;;;;10.80;87.00;;;10.18;69.42;99308.66;5063488;28;19924;-78
2023/03/25 07:16:21;;;;;;;;;;;10.80;86.90;;;10.15;69.62;99297.66;5055438;28;19978;-79
2023/03/25 07:18:49;;;;;;;;;;;10.80;87.10;;;10.12;69.60;99306.94;5053060;28;19936;-76
2023/03/25 07:21:16;;;;;;;;;;;10.90;87.10;;;10.15;70.11;99294.97;5052386;28;19974;-79
2023/03/25 07:23:43;;;;;;;;;;;10.80;87.50;;;10.16;69.91;99299.28;5048388;28;19935;-77
2023/03/25 07:26:12;;;;;;;;;;;10.90;87.30;;;10.18;69.98;99300.66;5043251;28;19925;-78
2023/03/25 07:28:39;;;;;;;;;;;10.90;87.30;;;10.21;70.01;99310.03;5051013;28;19978;-77
2023/03/25 07:31:08;;;;;;;;;;;10.90;87.20;;;10.22;70.14;99301.00;5039667;28;19925;-79
2023/03/25 07:33:36;;;;;;;;;;;10.90;87.30;;;10.23;69.68;99303.41;5042677;28;19921;-77
2023/03/25 07:36:10;;;;;;;;;;;10.90;87.00;;;10.15;69.91;99301.16;5037821;28;20722;-78
2023/03/25 07:38:37;;;;;;;;;;;10.90;87.20;;;10.18;69.85;99298.00;5047538;28;19924;-78
2023/03/25 07:41:06;;;;;;;;;;;10.90;87.10;;;10.18;69.80;99287.34;5045259;28;19936;-77
2023/03/25 07:43:33;;;;;;;;;;;10.90;87.20;;;10.21;69.71;99310.84;5052096;28;19924;-78
2023/03/25 07:46:20;;;;;;;;;;;10.90;87.00;;;10.14;69.37;99310.16;5044097;28;19994;-78
2023/03/25 07:48:47;;;;;;;;;;;10.90;86.80;;;10.17;69.54;99308.91;5037631;28;19928;-78
2023/03/25 07:51:14;;;;;;;;;;;10.90;86.90;;;10.18;69.48;99297.19;5036200;28;19951;-77
2023/03/25 07:53:43;;;;;;;;;;;10.90;86.90;;;10.16;69.26;99312.63;5039864;28;20439;-78
2023/03/25 07:56:10;;;;;;;;;;;10.80;86.50;;;10.19;69.44;99307.59;5044580;28;20367;-78
2023/03/25 07:58:37;;;;;;;;;;;10.90;86.70;;;10.22;68.90;99311.66;5046453;28;19948;-77
2023/03/25 08:01:05;;;;;;;;;;;10.90;86.30;;;10.20;67.88;99303.91;5049267;28;19931;-78
2023/03/25 08:03:34;;;;;;;;;;;10.90;85.50;;;10.14;67.55;99302.16;5042730;28;19929;-78
2023/03/25 08:06:01;;;;;;;;;;;10.80;85.10;;;10.10;67.70;99311.69;5025831;28;20377;-78
2023/03/25 08:08:29;;;;;;;;;;;10.80;85.40;;;10.15;68.27;99308.31;5041655;28;19925;-79
2023/03/25 08:10:57;;;;;;;;;;;10.90;85.70;;;10.16;66.97;99309.94;5040237;28;20394;-78
2023/03/25 08:13:24;;;;;;;;;;;10.90;84.60;;;10.12;67.03;99309.59;5041566;28;19925;-78
2023/03/25 08:15:51;;;;;;;;;;;10.90;84.40;;;10.10;67.51;99314.34;5036342;28;20015;-77
2023/03/25 08:18:18;;;;;;;;;;;10.80;84.90;;;10.11;66.77;99318.66;5027398;28;19925;-79
2023/03/25 08:20:48;;;;;;;;;;;10.80;84.40;;;10.14;66.69;99325.34;5022573;28;19943;-78
2023/03/25 08:23:18;;;;;;;;;;;10.80;84.10;;;10.18;67.24;99331.81;5041315;28;19925;-76
2023/03/25 08:25:47;;;;;;;;;;;10.90;84.90;;;10.22;67.04;99328.44;5041311;28;19933;-77
2023/03/25 08:28:16;;;;;;;;;;;10.90;84.70;;;10.29;66.86;99334.47;5043347;28;19924;-79
2023/03/25 08:30:44;;;;;;;;;;;11.00;84.50;;;10.32;66.40;99328.69;5040642;28;19928;-78
2023/03/25 08:33:11;;;;;;;;;;;11.00;84.10;;;10.35;66.29;99332.72;5042519;28;20308;-78
2023/03/25 08:35:38;;;;;;;;;;;11.00;84.00;;;10.32;65.21;99328.69;5042362;28;19925;-75
2023/03/25 08:38:07;;;;;;;;;;;11.00;83.10;;;10.37;65.76;99330.63;5041918;28;20577;-77
2023/03/25 08:40:34;;;;;;;;;;;11.10;83.60;;;10.41;65.09;99330.97;5046522;28;19935;-76
2023/03/25 08:43:04;;;;;;;;;;;11.10;82.80;;;10.40;64.15;99338.16;5047409;28;20015;-78
2023/03/25 08:45:33;;;;;;;;;;;11.10;81.80;;;10.40;64.66;99330.16;5045577;28;20399;-76
2023/03/25 08:48:00;;;;;;;;;;;11.10;82.50;;;10.41;64.28;99326.44;5022562;28;19924;-78
2023/03/25 08:50:27;;;;;;;;;;;11.10;82.00;;;10.44;64.51;99331.31;5037336;28;19921;-79
2023/03/25 08:52:56;;;;;;;;;;;11.20;82.20;;;10.47;64.41;99324.69;5031825;28;19935;-80
2023/03/25 08:55:25;;;;;;;;;;;11.20;82.00;;;10.52;64.05;99327.44;5048602;28;19960;-79
2023/03/25 08:57:52;;;;;;;;;;;11.20;81.60;;;10.57;64.37;99330.19;5044416;28;19953;-79
2023/03/25 09:00:23;;;;;;;;;;;11.30;82.00;;;10.57;64.27;99338.19;5055780;28;20408;-78
2023/03/25 09:02:50;;;;;;;;;;;11.30;82.00;;;10.58;64.60;99318.47;5031325;28;20081;-78
2023/03/25 09:05:17;;;;;;;;;;;11.30;82.40;;;10.58;63.55;99342.47;5037865;28;19928;-79
2023/03/25 09:07:44;;;;;;;;;;;11.30;81.40;;;10.58;63.81;99332.59;5045300;28;19924;-79
2023/03/25 09:10:13;;;;;;;;;;;11.30;81.50;;;10.58;63.93;99334.47;5043328;28;19960;-79
2023/03/25 09:12:41;;;;;;;;;;;11.30;81.50;;;10.64;64.57;99335.38;5038114;28;19925;-78
2023/03/25 09:15:11;;;;;;;;;;;11.30;82.00;;;10.66;64.01;99334.09;5034309;28;20016;-79
2023/03/25 09:17:39;;;;;;;;;;;11.30;81.70;;;10.65;63.99;99335.16;5036613;28;19932;-80
2023/03/25 09:20:08;;;;;;;;;;;11.40;81.60;;;10.67;64.01;99332.22;5034334;28;19963;-78
2023/03/25 09:22:35;;;;;;;;;;;11.40;81.90;;;10.61;63.41;99323.34;5042048;28;19931;-78
2023/03/25 09:25:02;;;;;;;;;;;11.30;81.00;;;10.60;63.53;99329.72;5048514;28;20095;-81
2023/03/25 09:27:29;;;;;;;;;;;11.30;81.20;;;10.60;64.05;99324.41;5043031;28;19924;-80
2023/03/25 09:29:57;;;;;;;;;;;11.30;81.60;;;10.64;64.51;99324.69;5038078;28;19921;-80
2023/03/25 09:32:24;;;;;;;;;;;11.30;82.20;;;10.66;66.18;99339.44;5044520;28;20514;-80
2023/03/25 09:34:51;;;;;;;;;;;11.30;83.90;;;10.69;66.96;99341.63;5043521;28;19927;-80
2023/03/25 09:37:18;;;;;;;;;;;11.40;84.50;;;10.65;68.21;99350.34;5049289;28;19924;-82
2023/03/25 09:39:45;;;;;;;;;;;11.30;85.70;;;10.57;68.15;99349.66;5051015;28;19936;-83
2023/03/25 09:42:35;;;;;;;;;;;11.30;85.40;;;10.57;68.70;99346.19;5044550;28;19964;-84
2023/03/25 09:45:16;;;;;;;;;;;11.30;86.10;;;10.57;69.53;99340.84;5019181;28;20043;-82
2023/03/25 09:47:52;;;;;;;;;;;11.30;86.80;;;10.57;69.63;99340.84;5042614;28;19944;-82
2023/03/25 09:50:20;;;;;;;;;;;11.30;86.90;;;10.57;69.55;99335.53;5045246;28;20019;-81
2023/03/25 09:52:52;;;;;;;;;;;11.30;86.90;;;10.60;69.66;99334.25;5043274;28;20320;-85
2023/03/25 09:55:24;;;;;;;;;;;11.30;87.00;;;10.63;69.47;99333.75;5035068;28;19932;-82
2023/03/25 09:58:03;;;;;;;;;;;11.30;86.50;;;10.68;68.90;99323.19;5040546;28;19929;-81
2023/03/25 10:00:33;;;;;;;;;;;11.40;86.20;;;10.75;68.95;99315.84;5041330;28;19940;-82
2023/03/25 10:03:13;;;;;;;;;;;11.40;86.20;;;10.75;68.00;99322.00;5045311;28;19932;-81
2023/03/25 10:05:50;;;;;;;;;;;11.40;85.30;;;10.76;66.78;99323.59;5043957;28;19924;-82
2023/03/25 10:08:22;;;;;;;;;;;11.50;84.30;;;10.81;66.85;99330.88;5094883;22;19905;-83
2023/03/25 10:10:54;;;;;;;;;;;11.50;84.20;;;10.87;67.06;99329.09;5043004;28;19924;-85
2023/03/25 10:13:25;;;;;;;;;;;11.60;84.40;;;10.88;65.48;99328.84;5042284;28;20440;-84
2023/03/25 10:16:03;;;;;;;;;;;11.60;82.70;;;10.88;66.17;99328.06;5045750;28;19932;-82
2023/03/25 10:18:45;;;;;;;;;;;11.60;83.50;;;10.95;66.56;99331.38;5036386;28;19925;-84
2023/03/25 10:21:16;;;;;;;;;;;11.70;83.90;;;10.99;66.48;99338.66;5027734;28;20012;-85
2023/03/25 10:23:47;;;;;;;;;;;11.70;83.80;;;11.02;66.61;99340.84;5025604;28;20008;-84
2023/03/25 10:26:18;;;;;;;;;;;11.80;84.10;;;11.03;65.23;99349.69;5016700;28;20302;-85
2023/03/25 10:28:50;;;;;;;;;;;11.80;82.50;;;11.02;65.13;99342.69;5027662;28;19925;-88
2023/03/25 10:31:22;;;;;;;;;;;11.80;82.40;;;10.99;63.92;99343.19;5024304;28;19928;-83
2023/03/25 10:33:53;;;;;;;;;;;11.70;81.40;;;11.01;64.49;99341.09;5024475;28;19925;-82
2023/03/25 10:36:23;;;;;;;;;;;11.80;81.90;;;11.01;63.20;99344.56;5023056;28;19929;-78
2023/03/25 10:38:54;;;;;;;;;;;11.80;80.60;;;11.04;64.22;99362.75;5022959;28;19925;-78
2023/03/25 10:41:25;;;;;;;;;;;11.80;81.60;;;11.05;63.18;99351.03;5026219;28;20395;-80
2023/03/25 10:43:52;;;;;;;;;;;11.80;80.60;;;11.08;62.79;99355.91;5028257;28;19921;-78
2023/03/25 10:46:26;;;;;;;;;;;11.80;80.30;;;11.13;63.46;99354.38;5032087;28;19925;-79
2023/03/25 10:48:53;;;;;;;;;;;11.80;81.00;;;11.16;62.74;99353.88;5024844;28;20015;-79
2023/03/25 10:51:23;;;;;;;;;;;11.90;80.20;;;11.20;62.76;99347.00;5030638;28;19925;-78
2023/03/25 10:53:52;;;;;;;;;;;11.90;80.20;;;11.17;62.81;99344.81;5028822;28;19932;-78
2023/03/25 10:56:21;;;;;;;;;;;11.90;80.40;;;11.18;62.88;99357.94;5025258;28;20495;-78
2023/03/25 10:58:51;;;;;;;;;;;12.00;80.40;;;11.22;62.88;99360.91;5035119;28;20369;-78
2023/03/25 11:01:21;;;;;;;;;;;11.90;80.60;;;11.21;65.27;99365.44;5032357;28;20008;-80
2023/03/25 11:03:51;;;;;;;;;;;12.00;82.70;;;11.23;65.41;99360.69;5020763;28;19992;-78
2023/03/25 11:06:23;;;;;;;;;;;12.00;82.60;;;11.24;66.38;99374.81;5025696;28;19928;-78
2023/03/25 11:08:58;;;;;;;;;;;12.00;84.20;;;11.22;64.95;99374.25;5028908;28;20012;-80
2023/03/25 11:11:32;;;;;;;;;;;11.90;82.70;;;11.19;64.81;99378.22;5023779;28;19929;-78
2023/03/25 11:13:59;;;;;;;;;;;11.90;82.20;;;11.21;64.67;99376.09;5024289;28;20302;-78
2023/03/25 11:16:31;;;;;;;;;;;11.90;82.00;;;11.20;64.55;99385.16;5018093;28;19931;-78
2023/03/25 11:19:01;;;;;;;;;;;11.90;81.90;;;11.15;65.08;99387.75;5011665;28;20004;-79
2023/03/25 11:21:32;;;;;;;;;;;11.90;82.40;;;11.09;65.54;99392.19;5029180;28;19968;-77
2023/03/25 11:24:00;;;;;;;;;;;11.90;83.10;;;11.09;65.61;99384.19;5025217;28;19964;-77
2023/03/25 11:26:29;;;;;;;;;;;11.90;83.20;;;11.10;65.94;99395.69;5024606;28;20301;-78
2023/03/25 11:29:01;;;;;;;;;;;11.90;83.30;;;11.09;66.73;99381.53;5020976;28;19931;-79